createdAt,value
2018-12-24T00:00:57.059Z,993.23
2018-12-24T00:01:57.058Z,993.21
2018-12-24T00:02:57.033Z,993.25
2018-12-24T00:03:57.048Z,993.30
2018-12-24T00:04:57.096Z,993.30
2018-12-24T00:05:56.998Z,993.26
2018-12-24T00:06:56.989Z,993.34
2018-12-24T00:07:57.014Z,993.38
2018-12-24T00:08:56.973Z,993.40
2018-12-24T00:09:56.998Z,993.33
2018-12-24T00:10:56.985Z,993.36
2018-12-24T00:11:56.957Z,993.41
2018-12-24T00:12:56.982Z,993.42
2018-12-24T00:13:56.946Z,993.41
2018-12-24T00:14:56.919Z,993.47
2018-12-24T00:15:56.945Z,993.50
2018-12-24T00:16:56.902Z,993.53
2018-12-24T00:17:56.921Z,993.52
2018-12-24T00:18:56.902Z,993.53
2018-12-24T00:19:56.857Z,993.53
2018-12-24T00:20:56.901Z,993.49
2018-12-24T00:21:56.859Z,993.53
2018-12-24T00:22:56.841Z,993.64
2018-12-24T00:23:56.830Z,993.66
2018-12-24T00:24:56.822Z,993.67
2018-12-24T00:25:56.867Z,993.68
2018-12-24T00:26:56.808Z,993.64
2018-12-24T00:27:56.803Z,993.70
2018-12-24T00:28:56.766Z,993.69
2018-12-24T00:29:56.754Z,993.69
2018-12-24T00:30:56.761Z,993.80
2018-12-24T00:31:56.749Z,993.82
2018-12-24T00:32:56.757Z,993.83
2018-12-24T00:33:56.714Z,993.80
2018-12-24T00:34:56.710Z,993.86
2018-12-24T00:35:56.695Z,993.99
2018-12-24T00:36:56.710Z,993.96
2018-12-24T00:37:56.702Z,993.94
2018-12-24T00:38:56.670Z,993.97
2018-12-24T00:39:56.663Z,994.11
2018-12-24T00:40:56.639Z,994.04
2018-12-24T00:41:56.653Z,994.10
2018-12-24T00:42:56.622Z,994.07
2018-12-24T00:43:56.656Z,994.14
2018-12-24T00:44:56.625Z,994.20
2018-12-24T00:45:56.593Z,994.26
2018-12-24T00:46:56.595Z,994.29
2018-12-24T00:47:56.575Z,994.27
2018-12-24T00:48:56.582Z,994.32
2018-12-24T00:49:56.550Z,994.43
2018-12-24T00:50:56.536Z,994.43
2018-12-24T00:51:56.526Z,994.47
2018-12-24T00:52:56.545Z,994.47
2018-12-24T00:53:56.548Z,994.48
2018-12-24T00:54:56.508Z,994.50
2018-12-24T00:55:56.507Z,994.51
2018-12-24T00:56:56.509Z,994.53
2018-12-24T00:57:56.485Z,994.63
2018-12-24T00:58:56.471Z,994.65
2018-12-24T00:59:56.492Z,994.71
2018-12-24T01:00:56.438Z,994.71
2018-12-24T01:01:56.429Z,994.78
2018-12-24T01:02:56.441Z,994.69
2018-12-24T01:03:56.424Z,994.73
2018-12-24T01:04:56.432Z,994.73
2018-12-24T01:05:56.383Z,994.85
2018-12-24T01:06:56.374Z,994.87
2018-12-24T01:07:56.367Z,994.94
2018-12-24T01:08:56.359Z,994.91
2018-12-24T01:09:56.392Z,994.84
2018-12-24T01:10:56.336Z,994.93
2018-12-24T01:11:56.345Z,994.95
2018-12-24T01:12:56.346Z,995.10
2018-12-24T01:13:56.309Z,995.16
2018-12-24T01:14:56.315Z,995.11
2018-12-24T01:15:56.318Z,995.13
2018-12-24T01:16:56.289Z,995.15
2018-12-24T01:17:56.267Z,995.19
2018-12-24T01:18:56.258Z,995.22
2018-12-24T01:19:56.248Z,995.29
2018-12-24T01:20:56.243Z,995.37
2018-12-24T01:21:56.256Z,995.35
2018-12-24T01:22:56.213Z,995.34
2018-12-24T01:23:56.212Z,995.36
2018-12-24T01:24:56.192Z,995.35
2018-12-24T01:25:56.186Z,995.39
2018-12-24T01:26:56.205Z,995.46
2018-12-24T01:27:56.160Z,995.50
2018-12-24T01:28:56.149Z,995.54
2018-12-24T01:29:56.145Z,995.60
2018-12-24T01:30:56.129Z,995.62
2018-12-24T01:31:56.162Z,995.66
2018-12-24T01:32:56.111Z,995.69
2018-12-24T01:33:56.114Z,995.71
2018-12-24T01:34:56.089Z,995.77
2018-12-24T01:35:56.076Z,995.75
2018-12-24T01:36:56.102Z,995.74
2018-12-24T01:37:56.087Z,995.76
2018-12-24T01:38:56.057Z,995.80
2018-12-24T01:39:56.058Z,995.90
2018-12-24T01:40:56.026Z,995.98
2018-12-24T01:41:56.063Z,995.98
2018-12-24T01:42:56.005Z,996.00
2018-12-24T01:43:55.999Z,996.06
2018-12-24T01:44:56.032Z,996.07
2018-12-24T01:45:56.000Z,996.09
2018-12-24T01:46:55.970Z,996.14
2018-12-24T01:47:56.037Z,996.21
2018-12-24T01:48:55.969Z,996.21
2018-12-24T01:49:56.033Z,996.24
2018-12-24T01:50:55.929Z,996.25
2018-12-24T01:51:55.968Z,996.25
2018-12-24T01:52:56.046Z,996.31
2018-12-24T01:53:55.932Z,996.30
2018-12-24T01:54:55.887Z,996.24
2018-12-24T01:55:55.877Z,996.27
2018-12-24T01:56:55.867Z,996.28
2018-12-24T01:57:55.852Z,996.33
2018-12-24T01:58:55.870Z,996.34
2018-12-24T01:59:55.839Z,996.34
2018-12-24T02:00:55.865Z,996.42
2018-12-24T02:01:55.821Z,996.43
2018-12-24T02:02:55.803Z,996.51
2018-12-24T02:03:55.791Z,996.40
2018-12-24T02:04:55.782Z,996.45
2018-12-24T02:05:55.804Z,996.42
2018-12-24T02:06:55.782Z,996.45
2018-12-24T02:07:55.749Z,996.48
2018-12-24T02:08:55.773Z,996.47
2018-12-24T02:09:55.745Z,996.52
2018-12-24T02:10:55.742Z,996.57
2018-12-24T02:11:55.711Z,996.53
2018-12-24T02:12:55.703Z,996.57
2018-12-24T02:13:55.731Z,996.58
2018-12-24T02:14:55.687Z,996.59
2018-12-24T02:15:55.684Z,996.68
2018-12-24T02:16:55.674Z,996.64
2018-12-24T02:17:55.734Z,996.75
2018-12-24T02:18:55.671Z,996.75
2018-12-24T02:19:55.651Z,996.79
2018-12-24T02:20:55.622Z,996.81
2018-12-24T02:21:55.609Z,996.90
2018-12-24T02:22:55.628Z,996.86
2018-12-24T02:23:55.601Z,996.95
2018-12-24T02:24:55.616Z,996.93
2018-12-24T02:25:55.597Z,996.99
2018-12-24T02:26:55.610Z,996.96
2018-12-24T02:27:55.545Z,996.95
2018-12-24T02:28:55.564Z,996.96
2018-12-24T02:29:55.526Z,997.01
2018-12-24T02:30:55.523Z,996.97
2018-12-24T02:31:55.534Z,997.01
2018-12-24T02:32:55.497Z,997.01
2018-12-24T02:33:55.497Z,997.02
2018-12-24T02:34:55.488Z,997.04
2018-12-24T02:35:55.470Z,997.04
2018-12-24T02:36:55.479Z,997.00
2018-12-24T02:37:55.451Z,997.06
2018-12-24T02:38:55.437Z,997.08
2018-12-24T02:39:55.438Z,997.09
2018-12-24T02:40:55.440Z,997.14
2018-12-24T02:41:55.467Z,997.12
2018-12-24T02:42:55.406Z,997.10
2018-12-24T02:43:55.385Z,997.14
2018-12-24T02:44:55.408Z,997.23
2018-12-24T02:45:55.372Z,997.15
2018-12-24T02:46:55.386Z,997.28
2018-12-24T02:47:55.358Z,997.28
2018-12-24T02:48:55.348Z,997.34
2018-12-24T02:49:55.315Z,997.32
2018-12-24T02:50:55.339Z,997.31
2018-12-24T02:51:55.325Z,997.26
2018-12-24T02:52:55.292Z,997.37
2018-12-24T02:53:55.308Z,997.36
2018-12-24T02:54:55.273Z,997.38
2018-12-24T02:55:55.252Z,997.35
2018-12-24T02:56:55.266Z,997.38
2018-12-24T02:57:55.234Z,997.38
2018-12-24T02:58:55.246Z,997.44
2018-12-24T02:59:55.216Z,997.48
2018-12-24T03:00:55.211Z,997.47
2018-12-24T03:01:55.200Z,997.45
2018-12-24T03:02:55.185Z,997.49
2018-12-24T03:03:55.198Z,997.49
2018-12-24T03:04:55.159Z,997.49
2018-12-24T03:05:55.178Z,997.57
2018-12-24T03:06:55.165Z,997.61
2018-12-24T03:07:55.155Z,997.65
2018-12-24T03:08:55.215Z,997.66
2018-12-24T03:09:55.123Z,997.69
2018-12-24T03:10:55.098Z,997.65
2018-12-24T03:11:55.107Z,997.71
2018-12-24T03:13:02.555Z,997.71
2018-12-24T03:13:56.064Z,997.71
2018-12-24T03:14:55.059Z,997.77
2018-12-24T03:15:55.076Z,997.73
2018-12-24T03:16:55.056Z,997.72
2018-12-24T03:17:55.048Z,997.80
2018-12-24T03:18:55.015Z,997.74
2018-12-24T03:19:55.005Z,997.82
2018-12-24T03:20:54.994Z,997.80
2018-12-24T03:21:55.009Z,997.76
2018-12-24T03:22:54.976Z,997.83
2018-12-24T03:23:54.997Z,997.87
2018-12-24T03:24:54.951Z,997.84
2018-12-24T03:25:54.943Z,997.84
2018-12-24T03:26:54.958Z,997.85
2018-12-24T03:27:54.927Z,997.87
2018-12-24T03:28:54.956Z,997.92
2018-12-24T03:29:54.947Z,997.89
2018-12-24T03:30:54.890Z,997.96
2018-12-24T03:31:54.881Z,997.97
2018-12-24T03:32:54.871Z,997.99
2018-12-24T03:33:54.859Z,997.97
2018-12-24T03:34:54.897Z,998.00
2018-12-24T03:35:54.856Z,998.00
2018-12-24T03:36:54.842Z,998.10
2018-12-24T03:37:54.816Z,998.13
2018-12-24T03:38:54.847Z,998.13
2018-12-24T03:39:54.799Z,998.09
2018-12-24T03:40:54.793Z,998.13
2018-12-24T03:41:54.785Z,998.16
2018-12-24T03:42:54.774Z,998.16
2018-12-24T03:43:54.812Z,998.19
2018-12-24T03:44:54.755Z,998.18
2018-12-24T03:45:54.738Z,998.25
2018-12-24T03:46:54.749Z,998.24
2018-12-24T03:47:54.772Z,998.18
2018-12-24T03:48:54.710Z,998.22
2018-12-24T03:49:54.724Z,998.17
2018-12-24T03:50:54.684Z,998.13
2018-12-24T03:51:54.671Z,998.22
2018-12-24T03:52:54.682Z,998.25
2018-12-24T03:53:54.649Z,998.27
2018-12-24T03:54:54.641Z,998.29
2018-12-24T03:55:54.656Z,998.28
2018-12-24T03:56:54.656Z,998.36
2018-12-24T03:57:54.644Z,998.30
2018-12-24T03:58:54.609Z,998.39
2018-12-24T03:59:54.588Z,998.34
2018-12-24T04:00:54.576Z,998.36
2018-12-24T04:01:54.595Z,998.39
2018-12-24T04:02:54.555Z,998.39
2018-12-24T04:03:54.544Z,998.44
2018-12-24T04:04:54.580Z,998.45
2018-12-24T04:05:54.532Z,998.43
2018-12-24T04:06:54.538Z,998.46
2018-12-24T04:07:54.505Z,998.50
2018-12-24T04:08:54.492Z,998.49
2018-12-24T04:09:54.520Z,998.50
2018-12-24T04:10:54.479Z,998.54
2018-12-24T04:11:54.472Z,998.60
2018-12-24T04:12:54.451Z,998.69
2018-12-24T04:13:54.483Z,998.65
2018-12-24T04:14:54.460Z,998.68
2018-12-24T04:15:54.422Z,998.68
2018-12-24T04:16:54.408Z,998.71
2018-12-24T04:17:54.408Z,998.72
2018-12-24T04:18:54.403Z,998.69
2018-12-24T04:19:54.403Z,998.75
2018-12-24T04:20:54.365Z,998.76
2018-12-24T04:21:54.360Z,998.85
2018-12-24T04:22:54.387Z,998.86
2018-12-24T04:23:54.339Z,998.88
2018-12-24T04:24:54.324Z,998.88
2018-12-24T04:25:54.314Z,998.91
2018-12-24T04:26:54.326Z,998.95
2018-12-24T04:27:54.341Z,999.08
2018-12-24T04:28:54.283Z,999.10
2018-12-24T04:29:54.275Z,999.13
2018-12-24T04:30:54.270Z,999.14
2018-12-24T04:31:54.264Z,999.20
2018-12-24T04:32:54.283Z,999.23
2018-12-24T04:33:54.245Z,999.24
2018-12-24T04:34:54.222Z,999.24
2018-12-24T04:35:54.213Z,999.24
2018-12-24T04:36:54.256Z,999.28
2018-12-24T04:37:54.214Z,999.25
2018-12-24T04:38:54.192Z,999.27
2018-12-24T04:39:54.187Z,999.27
2018-12-24T04:40:54.159Z,999.30
2018-12-24T04:41:54.191Z,999.38
2018-12-24T04:42:54.158Z,999.31
2018-12-24T04:43:54.130Z,999.35
2018-12-24T04:44:54.140Z,999.40
2018-12-24T04:45:54.115Z,999.45
2018-12-24T04:46:54.106Z,999.43
2018-12-24T04:47:54.098Z,999.48
2018-12-24T04:48:54.081Z,999.48
2018-12-24T04:49:54.093Z,999.47
2018-12-24T04:50:54.061Z,999.48
2018-12-24T04:51:54.050Z,999.57
2018-12-24T04:52:54.045Z,999.55
2018-12-24T04:53:54.058Z,999.61
2018-12-24T04:54:54.020Z,999.64
2018-12-24T04:55:54.024Z,999.69
2018-12-24T04:56:54.000Z,999.74
2018-12-24T04:57:53.984Z,999.67
2018-12-24T04:58:54.000Z,999.78
2018-12-24T04:59:53.964Z,999.77
2018-12-24T05:00:53.976Z,999.72
2018-12-24T05:01:53.950Z,999.80
2018-12-24T05:02:53.941Z,999.87
2018-12-24T05:03:53.959Z,999.86
2018-12-24T05:04:53.923Z,999.90
2018-12-24T05:05:53.938Z,999.84
2018-12-24T05:06:53.893Z,999.96
2018-12-24T05:07:53.889Z,1000.01
2018-12-24T05:08:53.873Z,999.98
2018-12-24T05:09:53.868Z,1000.03
2018-12-24T05:10:53.879Z,1000.01
2018-12-24T05:11:53.841Z,1000.07
2018-12-24T05:12:53.834Z,1000.10
2018-12-24T05:13:53.822Z,1000.17
2018-12-24T05:14:53.814Z,1000.17
2018-12-24T05:15:53.836Z,1000.23
2018-12-24T05:16:53.804Z,1000.13
2018-12-24T05:17:53.788Z,1000.25
2018-12-24T05:18:53.804Z,1000.27
2018-12-24T05:19:53.757Z,1000.26
2018-12-24T05:20:53.751Z,1000.29
2018-12-24T05:21:53.737Z,1000.31
2018-12-24T05:22:53.749Z,1000.34
2018-12-24T05:23:53.729Z,1000.34
2018-12-24T05:24:53.712Z,1000.37
2018-12-24T05:25:53.723Z,1000.43
2018-12-24T05:26:54.843Z,1000.49
2018-12-24T05:27:53.677Z,1000.49
2018-12-24T05:28:53.667Z,1000.56
2018-12-24T05:29:53.659Z,1000.56
2018-12-24T05:30:53.649Z,1000.63
2018-12-24T05:31:53.667Z,1000.60
2018-12-24T05:32:53.642Z,1000.63
2018-12-24T05:33:53.615Z,1000.61
2018-12-24T05:34:53.632Z,1000.66
2018-12-24T05:35:53.595Z,1000.72
2018-12-24T05:36:53.620Z,1000.71
2018-12-24T05:37:53.577Z,1000.69
2018-12-24T05:38:53.567Z,1000.72
2018-12-24T05:39:53.562Z,1000.75
2018-12-24T05:40:53.556Z,1000.77
2018-12-24T05:41:53.557Z,1000.86
2018-12-24T05:42:53.553Z,1000.88
2018-12-24T05:43:53.511Z,1000.84
2018-12-24T05:44:53.501Z,1000.84
2018-12-24T05:45:53.518Z,1000.88
2018-12-24T05:46:53.480Z,1000.94
2018-12-24T05:47:53.498Z,1000.95
2018-12-24T05:48:53.458Z,1000.93
2018-12-24T05:49:53.450Z,1000.96
2018-12-24T05:50:53.436Z,1001.00
2018-12-24T05:51:53.426Z,1000.97
2018-12-24T05:52:53.448Z,1000.99
2018-12-24T05:53:53.414Z,1001.04
2018-12-24T05:54:53.393Z,1001.04
2018-12-24T05:55:53.386Z,1001.12
2018-12-24T05:56:53.400Z,1001.09
2018-12-24T05:57:53.368Z,1001.12
2018-12-24T05:58:53.354Z,1001.13
2018-12-24T05:59:53.346Z,1001.16
2018-12-24T06:00:53.343Z,1001.15
2018-12-24T06:01:53.363Z,1001.17
2018-12-24T06:02:53.317Z,1001.17
2018-12-24T06:03:53.325Z,1001.23
2018-12-24T06:04:53.313Z,1001.23
2018-12-24T06:05:53.289Z,1001.23
2018-12-24T06:06:53.271Z,1001.26
2018-12-24T06:07:53.298Z,1001.30
2018-12-24T06:08:53.251Z,1001.38
2018-12-24T06:09:53.253Z,1001.31
2018-12-24T06:10:53.235Z,1001.44
2018-12-24T06:11:53.222Z,1001.50
2018-12-24T06:12:53.246Z,1001.55
2018-12-24T06:13:57.990Z,1001.58
2018-12-24T06:14:54.204Z,1001.57
2018-12-24T06:15:53.181Z,1001.60
2018-12-24T06:16:53.200Z,1001.59
2018-12-24T06:17:53.194Z,1001.66
2018-12-24T06:18:53.151Z,1001.64
2018-12-24T06:19:53.141Z,1001.67
2018-12-24T06:20:53.128Z,1001.71
2018-12-24T06:21:53.128Z,1001.69
2018-12-24T06:22:53.134Z,1001.69
2018-12-24T06:23:53.108Z,1001.66
2018-12-24T06:24:53.121Z,1001.74
2018-12-24T06:25:53.093Z,1001.76
2018-12-24T06:26:53.072Z,1001.82
2018-12-24T06:27:53.077Z,1001.81
2018-12-24T06:28:53.080Z,1001.90
2018-12-24T06:29:53.061Z,1001.89
2018-12-24T06:30:53.028Z,1001.87
2018-12-24T06:31:53.031Z,1001.88
2018-12-24T06:32:53.009Z,1001.93
2018-12-24T06:33:53.033Z,1001.88
2018-12-24T06:34:52.984Z,1001.93
2018-12-24T06:35:52.972Z,1002.03
2018-12-24T06:36:52.986Z,1002.02
2018-12-24T06:37:52.961Z,1002.08
2018-12-24T06:38:52.979Z,1002.09
2018-12-24T06:39:52.943Z,1002.12
2018-12-24T06:40:52.924Z,1002.16
2018-12-24T06:41:52.944Z,1002.13
2018-12-24T06:42:52.909Z,1002.15
2018-12-24T06:43:52.929Z,1002.20
2018-12-24T06:44:52.883Z,1002.31
2018-12-24T06:45:52.876Z,1002.26
2018-12-24T06:46:52.875Z,1002.30
2018-12-24T06:47:52.870Z,1002.28
2018-12-24T06:48:52.870Z,1002.29
2018-12-24T06:49:52.865Z,1002.38
2018-12-24T06:50:52.819Z,1002.41
2018-12-24T06:51:52.816Z,1002.40
2018-12-24T06:52:52.810Z,1002.43
2018-12-24T06:53:52.798Z,1002.36
2018-12-24T06:54:52.842Z,1002.31
2018-12-24T06:55:52.768Z,1002.41
2018-12-24T06:56:52.782Z,1002.40
2018-12-24T06:57:52.750Z,1002.39
2018-12-24T06:58:52.740Z,1002.38
2018-12-24T06:59:52.754Z,1002.50
2018-12-24T07:00:52.718Z,1002.51
2018-12-24T07:01:52.748Z,1002.56
2018-12-24T07:02:52.700Z,1002.56
2018-12-24T07:03:52.687Z,1002.57
2018-12-24T07:04:52.679Z,1002.55
2018-12-24T07:05:52.692Z,1002.65
2018-12-24T07:06:52.658Z,1002.64
2018-12-24T07:07:52.650Z,1002.71
2018-12-24T07:08:52.643Z,1002.65
2018-12-24T07:09:52.651Z,1002.72
2018-12-24T07:10:52.619Z,1002.71
2018-12-24T07:11:52.619Z,1002.77
2018-12-24T07:12:52.596Z,1002.70
2018-12-24T07:13:52.608Z,1002.77
2018-12-24T07:14:52.606Z,1002.78
2018-12-24T07:15:52.602Z,1002.86
2018-12-24T07:16:52.557Z,1002.83
2018-12-24T07:17:52.545Z,1002.80
2018-12-24T07:18:52.543Z,1002.89
2018-12-24T07:19:52.527Z,1002.89
2018-12-24T07:20:52.596Z,1002.88
2018-12-24T07:21:52.505Z,1002.95
2018-12-24T07:22:52.496Z,1002.92
2018-12-24T07:23:52.484Z,1002.96
2018-12-24T07:24:52.497Z,1002.98
2018-12-24T07:25:52.468Z,1002.98
2018-12-24T07:26:52.454Z,1003.03
2018-12-24T07:27:52.442Z,1003.03
2018-12-24T07:28:59.012Z,1003.07
2018-12-24T07:29:53.443Z,1003.08
2018-12-24T07:30:52.421Z,1003.02
2018-12-24T07:31:52.413Z,1003.01
2018-12-24T07:32:52.414Z,1003.02
2018-12-24T07:33:52.385Z,1003.01
2018-12-24T07:34:52.375Z,1002.96
2018-12-24T07:35:52.362Z,1002.98
2018-12-24T07:36:52.376Z,1002.98
2018-12-24T07:37:52.343Z,1003.02
2018-12-24T07:38:52.363Z,1003.04
2018-12-24T07:39:52.319Z,1003.10
2018-12-24T07:40:52.308Z,1003.09
2018-12-24T07:41:52.299Z,1003.13
2018-12-24T07:42:52.288Z,1003.16
2018-12-24T07:43:52.303Z,1003.20
2018-12-24T07:44:52.271Z,1003.23
2018-12-24T07:45:52.268Z,1003.27
2018-12-24T07:46:52.254Z,1003.28
2018-12-24T07:47:52.264Z,1003.28
2018-12-24T07:48:52.228Z,1003.25
2018-12-24T07:49:52.220Z,1003.30
2018-12-24T07:50:52.208Z,1003.32
2018-12-24T07:51:52.211Z,1003.33
2018-12-24T07:52:52.235Z,1003.30
2018-12-24T07:53:52.183Z,1003.35
2018-12-24T07:54:52.168Z,1003.35
2018-12-24T07:55:52.157Z,1003.32
2018-12-24T07:56:52.146Z,1003.40
2018-12-24T07:57:52.163Z,1003.43
2018-12-24T07:58:52.159Z,1003.46
2018-12-24T07:59:52.120Z,1003.47
2018-12-24T08:00:52.119Z,1003.44
2018-12-24T08:01:52.093Z,1003.46
2018-12-24T08:02:52.094Z,1003.45
2018-12-24T08:03:52.097Z,1003.50
2018-12-24T08:04:52.062Z,1003.47
2018-12-24T08:05:52.050Z,1003.53
2018-12-24T08:06:52.048Z,1003.55
2018-12-24T08:07:52.059Z,1003.56
2018-12-24T08:08:52.062Z,1003.54
2018-12-24T08:09:52.015Z,1003.58
2018-12-24T08:10:52.007Z,1003.59
2018-12-24T08:11:52.013Z,1003.60
2018-12-24T08:12:51.981Z,1003.64
2018-12-24T08:13:51.993Z,1003.58
2018-12-24T08:14:51.960Z,1003.59
2018-12-24T08:15:51.949Z,1003.59
2018-12-24T08:16:51.965Z,1003.60
2018-12-24T08:17:51.930Z,1003.60
2018-12-24T08:18:51.954Z,1003.63
2018-12-24T08:19:51.910Z,1003.64
2018-12-24T08:20:51.898Z,1003.67
2018-12-24T08:21:51.888Z,1003.69
2018-12-24T08:22:51.884Z,1003.71
2018-12-24T08:23:51.891Z,1003.70
2018-12-24T08:24:51.875Z,1003.75
2018-12-24T08:25:51.846Z,1003.78
2018-12-24T08:26:53.747Z,1003.81
2018-12-24T08:27:51.829Z,1003.89
2018-12-24T08:28:51.841Z,1003.94
2018-12-24T08:29:51.805Z,1003.93
2018-12-24T08:30:51.799Z,1004.00
2018-12-24T08:31:51.803Z,1004.03
2018-12-24T08:32:51.776Z,1004.05
2018-12-24T08:33:51.767Z,1004.08
2018-12-24T08:34:51.779Z,1004.07
2018-12-24T08:35:51.751Z,1004.10
2018-12-24T08:36:51.764Z,1004.11
2018-12-24T08:37:51.728Z,1004.19
2018-12-24T08:38:51.714Z,1004.16
2018-12-24T08:39:51.742Z,1004.20
2018-12-24T08:40:51.693Z,1004.20
2018-12-24T08:41:51.683Z,1004.22
2018-12-24T08:42:51.681Z,1004.22
2018-12-24T08:43:51.666Z,1004.24
2018-12-24T08:44:51.682Z,1004.29
2018-12-24T08:45:51.641Z,1004.27
2018-12-24T08:46:51.639Z,1004.32
2018-12-24T08:47:51.638Z,1004.35
2018-12-24T08:48:51.612Z,1004.34
2018-12-24T08:49:51.625Z,1004.39
2018-12-24T08:50:51.591Z,1004.38
2018-12-24T08:51:51.616Z,1004.40
2018-12-24T08:52:51.570Z,1004.44
2018-12-24T08:53:51.599Z,1004.48
2018-12-24T08:54:51.549Z,1004.53
2018-12-24T08:55:51.540Z,1004.61
2018-12-24T08:56:51.530Z,1004.59
2018-12-24T08:57:51.524Z,1004.65
2018-12-24T08:58:51.536Z,1004.66
2018-12-24T08:59:51.507Z,1004.66
2018-12-24T09:00:51.493Z,1004.65
2018-12-24T09:01:51.516Z,1004.62
2018-12-24T09:02:51.466Z,1004.69
2018-12-24T09:03:51.472Z,1004.73
2018-12-24T09:04:51.446Z,1004.76
2018-12-24T09:05:51.435Z,1004.76
2018-12-24T09:06:51.456Z,1004.77
2018-12-24T09:07:51.420Z,1004.84
2018-12-24T09:08:51.418Z,1004.85
2018-12-24T09:09:51.421Z,1004.86
2018-12-24T09:10:51.390Z,1004.85
2018-12-24T09:11:51.408Z,1004.96
2018-12-24T09:12:51.364Z,1005.01
2018-12-24T09:13:51.354Z,1005.13
2018-12-24T09:14:51.348Z,1005.16
2018-12-24T09:15:51.342Z,1005.20
2018-12-24T09:16:51.375Z,1005.28
2018-12-24T09:17:51.319Z,1005.27
2018-12-24T09:18:51.302Z,1005.29
2018-12-24T09:19:51.293Z,1005.31
2018-12-24T09:20:52.707Z,1005.31
2018-12-24T09:21:51.303Z,1005.39
2018-12-24T09:22:51.264Z,1005.39
2018-12-24T09:23:51.256Z,1005.42
2018-12-24T09:24:51.241Z,1005.46
2018-12-24T09:25:51.231Z,1005.52
2018-12-24T09:26:51.252Z,1005.54
2018-12-24T09:27:51.212Z,1005.61
2018-12-24T09:28:51.224Z,1005.60
2018-12-24T09:29:51.216Z,1005.63
2018-12-24T09:30:51.180Z,1005.58
2018-12-24T09:31:51.166Z,1005.59
2018-12-24T09:32:51.158Z,1005.62
2018-12-24T09:33:51.151Z,1005.62
2018-12-24T09:34:51.171Z,1005.63
2018-12-24T09:35:51.142Z,1005.65
2018-12-24T09:36:51.118Z,1005.64
2018-12-24T09:37:51.108Z,1005.72
2018-12-24T09:38:51.094Z,1005.65
2018-12-24T09:39:51.109Z,1005.70
2018-12-24T09:40:51.076Z,1005.78
2018-12-24T09:41:51.064Z,1005.78
2018-12-24T09:42:51.815Z,1005.75
2018-12-24T09:43:51.077Z,1005.80
2018-12-24T09:44:58.736Z,1005.80
2018-12-24T09:45:52.049Z,1005.84
2018-12-24T09:46:51.013Z,1005.85
2018-12-24T09:47:51.004Z,1005.91
2018-12-24T09:48:50.996Z,1005.93
2018-12-24T09:49:50.984Z,1005.96
2018-12-24T09:50:51.003Z,1006.00
2018-12-24T09:51:50.973Z,1006.01
2018-12-24T09:52:50.954Z,1006.10
2018-12-24T09:53:50.944Z,1006.09
2018-12-24T09:54:50.930Z,1006.15
2018-12-24T09:55:50.944Z,1006.22
2018-12-24T09:56:50.930Z,1006.24
2018-12-24T09:57:50.903Z,1006.29
2018-12-24T09:58:50.903Z,1006.28
2018-12-24T09:59:50.881Z,1006.27
2018-12-24T10:00:50.865Z,1006.36
2018-12-24T10:01:50.876Z,1006.36
2018-12-24T10:02:50.847Z,1006.40
2018-12-24T10:03:50.836Z,1006.33
2018-12-24T10:04:50.825Z,1006.41
2018-12-24T10:05:50.821Z,1006.43
2018-12-24T10:06:50.841Z,1006.43
2018-12-24T10:07:50.821Z,1006.42
2018-12-24T10:08:50.784Z,1006.54
2018-12-24T10:09:50.817Z,1006.52
2018-12-24T10:10:50.765Z,1006.56
2018-12-24T10:11:50.755Z,1006.61
2018-12-24T10:12:50.767Z,1006.66
2018-12-24T10:13:50.745Z,1006.65
2018-12-24T10:14:50.748Z,1006.71
2018-12-24T10:15:50.716Z,1006.76
2018-12-24T10:16:50.699Z,1006.74
2018-12-24T10:17:50.712Z,1006.71
2018-12-24T10:18:50.679Z,1006.70
2018-12-24T10:19:50.672Z,1006.66
2018-12-24T10:20:50.664Z,1006.64
2018-12-24T10:21:50.772Z,1006.68
2018-12-24T10:22:50.637Z,1006.68
2018-12-24T10:23:50.624Z,1006.72
2018-12-24T10:24:50.619Z,1006.72
2018-12-24T10:25:50.617Z,1006.70
2018-12-24T10:26:50.625Z,1006.72
2018-12-24T10:27:50.588Z,1006.79
2018-12-24T10:28:50.572Z,1006.80
2018-12-24T10:29:50.565Z,1006.81
2018-12-24T10:30:50.548Z,1006.72
2018-12-24T10:31:50.562Z,1006.76
2018-12-24T10:32:50.530Z,1006.80
2018-12-24T10:33:50.539Z,1006.82
2018-12-24T10:34:50.509Z,1006.83
2018-12-24T10:35:50.500Z,1006.87
2018-12-24T10:36:50.616Z,1006.87
2018-12-24T10:37:50.477Z,1006.92
2018-12-24T10:38:50.464Z,1006.91
2018-12-24T10:39:50.469Z,1006.93
2018-12-24T10:40:50.485Z,1006.84
2018-12-24T10:41:50.457Z,1006.84
2018-12-24T10:42:50.425Z,1006.86
2018-12-24T10:43:50.437Z,1006.85
2018-12-24T10:44:50.404Z,1006.80
2018-12-24T10:45:50.403Z,1006.79
2018-12-24T10:46:50.410Z,1006.83
2018-12-24T10:47:50.369Z,1006.80
2018-12-24T10:48:50.358Z,1006.83
2018-12-24T10:49:50.353Z,1006.84
2018-12-24T10:50:50.345Z,1006.81
2018-12-24T10:51:50.360Z,1006.81
2018-12-24T10:52:50.353Z,1006.81
2018-12-24T10:53:50.312Z,1006.82
2018-12-24T10:54:50.313Z,1006.76
2018-12-24T10:55:50.285Z,1006.74
2018-12-24T10:56:50.303Z,1006.78
2018-12-24T10:57:50.310Z,1006.77
2018-12-24T10:58:50.254Z,1006.77
2018-12-24T10:59:50.244Z,1006.82
2018-12-24T11:00:50.241Z,1006.77
2018-12-24T11:01:50.230Z,1006.81
2018-12-24T11:02:50.240Z,1006.85
2018-12-24T11:03:50.203Z,1006.84
2018-12-24T11:04:50.195Z,1006.74
2018-12-24T11:05:50.182Z,1006.79
2018-12-24T11:06:50.180Z,1006.78
2018-12-24T11:07:50.188Z,1006.70
2018-12-24T11:08:50.165Z,1006.71
2018-12-24T11:09:50.142Z,1006.71
2018-12-24T11:10:50.164Z,1006.70
2018-12-24T11:11:50.147Z,1006.69
2018-12-24T11:12:50.116Z,1006.66
2018-12-24T11:13:50.103Z,1006.66
2018-12-24T11:14:50.097Z,1006.63
2018-12-24T11:15:50.087Z,1006.68
2018-12-24T11:16:50.099Z,1006.64
2018-12-24T11:17:50.066Z,1006.66
2018-12-24T11:18:50.049Z,1006.68
2018-12-24T11:19:50.044Z,1006.69
2018-12-24T11:20:50.061Z,1006.66
2018-12-24T11:21:50.019Z,1006.69
2018-12-24T11:22:50.036Z,1006.69
2018-12-24T11:23:50.005Z,1006.69
2018-12-24T11:24:50.019Z,1006.74
2018-12-24T11:25:50.016Z,1006.71
2018-12-24T11:26:49.968Z,1006.75
2018-12-24T11:27:49.961Z,1006.69
2018-12-24T11:28:49.951Z,1006.67
2018-12-24T11:29:49.936Z,1006.73
2018-12-24T11:30:49.958Z,1006.77
2018-12-24T11:31:49.913Z,1006.78
2018-12-24T11:32:49.904Z,1006.77
2018-12-24T11:33:49.894Z,1006.78
2018-12-24T11:34:49.912Z,1006.73
2018-12-24T11:35:49.875Z,1006.70
2018-12-24T11:36:49.868Z,1006.79
2018-12-24T11:37:49.854Z,1006.70
2018-12-24T11:38:49.872Z,1006.75
2018-12-24T11:39:49.832Z,1006.73
2018-12-24T11:40:49.825Z,1006.79
2018-12-24T11:41:49.841Z,1006.76
2018-12-24T11:42:49.811Z,1006.87
2018-12-24T11:43:49.805Z,1006.79
2018-12-24T11:44:49.793Z,1006.87
2018-12-24T11:45:49.771Z,1006.89
2018-12-24T11:46:49.810Z,1006.91
2018-12-24T11:47:49.749Z,1006.95
2018-12-24T11:48:49.739Z,1006.89
2018-12-24T11:49:49.734Z,1006.80
2018-12-24T11:50:49.726Z,1006.80
2018-12-24T11:51:49.740Z,1006.85
2018-12-24T11:52:49.717Z,1006.91
2018-12-24T11:53:49.687Z,1006.91
2018-12-24T11:54:49.701Z,1006.91
2018-12-24T11:55:49.664Z,1006.95
2018-12-24T11:56:49.653Z,1006.93
2018-12-24T11:57:49.664Z,1007.02
2018-12-24T11:58:49.675Z,1006.98
2018-12-24T11:59:49.627Z,1006.85
2018-12-24T12:00:49.614Z,1006.96
2018-12-24T12:01:49.624Z,1006.92
2018-12-24T12:02:49.594Z,1006.93
2018-12-24T12:03:49.680Z,1006.86
2018-12-24T12:04:49.572Z,1006.83
2018-12-24T12:05:49.561Z,1006.91
2018-12-24T12:06:49.562Z,1006.88
2018-12-24T12:07:49.545Z,1006.94
2018-12-24T12:08:49.561Z,1006.93
2018-12-24T12:09:49.548Z,1006.92
2018-12-24T12:10:49.538Z,1006.90
2018-12-24T12:11:49.500Z,1006.94
2018-12-24T12:12:49.493Z,1006.93
2018-12-24T12:13:49.484Z,1006.92
2018-12-24T12:14:49.498Z,1006.98
2018-12-24T12:15:49.495Z,1006.99